sensor_id;sensor_type;location;lat;lon;timestamp;P1;durP1;ratioP1;P2;durP2;ratioP2
3307;SDS011;1666;48.898;9.182;2023-02-28T00:00:39;4.00;;;3.22;;
3307;SDS011;1666;48.898;9.182;2023-02-28T00:03:09;7.65;;;3.30;;
3307;SDS011;1666;48.898;9.182;2023-02-28T00:05:39;5.53;;;3.63;;
3307;SDS011;1666;48.898;9.182;2023-02-28T00:08:09;4.50;;;3.55;;
3307;SDS011;1666;48.898;9.182;2023-02-28T00:10:41;4.50;;;3.65;;
3307;SDS011;1666;48.898;9.182;2023-02-28T00:13:11;4.72;;;3.45;;
3307;SDS011;1666;48.898;9.182;2023-02-28T00:15:44;5.72;;;3.85;;
3307;SDS011;1666;48.898;9.182;2023-02-28T00:18:14;6.53;;;3.55;;
3307;SDS011;1666;48.898;9.182;2023-02-28T00:20:44;4.63;;;3.15;;
3307;SDS011;1666;48.898;9.182;2023-02-28T00:23:14;5.38;;;3.58;;
3307;SDS011;1666;48.898;9.182;2023-02-28T00:25:44;6.43;;;3.72;;
3307;SDS011;1666;48.898;9.182;2023-02-28T00:28:14;9.52;;;3.88;;
3307;SDS011;1666;48.898;9.182;2023-02-28T00:30:46;5.80;;;3.45;;
3307;SDS011;1666;48.898;9.182;2023-02-28T00:33:16;4.70;;;3.60;;
3307;SDS011;1666;48.898;9.182;2023-02-28T00:35:46;4.70;;;3.50;;
3307;SDS011;1666;48.898;9.182;2023-02-28T00:38:16;4.38;;;3.28;;
3307;SDS011;1666;48.898;9.182;2023-02-28T00:40:46;6.20;;;3.63;;
3307;SDS011;1666;48.898;9.182;2023-02-28T00:43:16;5.50;;;3.92;;
3307;SDS011;1666;48.898;9.182;2023-02-28T00:45:48;5.88;;;3.90;;
3307;SDS011;1666;48.898;9.182;2023-02-28T00:48:18;10.02;;;4.50;;
3307;SDS011;1666;48.898;9.182;2023-02-28T00:50:48;7.70;;;3.97;;
3307;SDS011;1666;48.898;9.182;2023-02-28T00:53:18;7.22;;;4.10;;
3307;SDS011;1666;48.898;9.182;2023-02-28T00:55:48;5.53;;;4.05;;
3307;SDS011;1666;48.898;9.182;2023-02-28T00:58:18;5.95;;;4.07;;
3307;SDS011;1666;48.898;9.182;2023-02-28T01:00:51;5.80;;;4.25;;
3307;SDS011;1666;48.898;9.182;2023-02-28T01:03:21;7.13;;;4.25;;
3307;SDS011;1666;48.898;9.182;2023-02-28T01:05:52;5.18;;;3.92;;
3307;SDS011;1666;48.898;9.182;2023-02-28T01:08:22;6.90;;;4.93;;
3307;SDS011;1666;48.898;9.182;2023-02-28T01:10:53;5.78;;;4.50;;
3307;SDS011;1666;48.898;9.182;2023-02-28T01:13:23;5.57;;;4.05;;
3307;SDS011;1666;48.898;9.182;2023-02-28T01:15:55;7.22;;;4.40;;
3307;SDS011;1666;48.898;9.182;2023-02-28T01:18:25;5.60;;;4.25;;
3307;SDS011;1666;48.898;9.182;2023-02-28T01:20:55;5.93;;;4.13;;
3307;SDS011;1666;48.898;9.182;2023-02-28T01:23:25;8.70;;;4.63;;
3307;SDS011;1666;48.898;9.182;2023-02-28T01:25:55;6.07;;;4.07;;
3307;SDS011;1666;48.898;9.182;2023-02-28T01:28:25;6.88;;;4.00;;
3307;SDS011;1666;48.898;9.182;2023-02-28T01:30:58;7.05;;;4.38;;
3307;SDS011;1666;48.898;9.182;2023-02-28T01:33:28;6.78;;;5.00;;
3307;SDS011;1666;48.898;9.182;2023-02-28T01:35:58;6.82;;;4.30;;
3307;SDS011;1666;48.898;9.182;2023-02-28T01:38:29;6.13;;;4.50;;
3307;SDS011;1666;48.898;9.182;2023-02-28T01:40:59;7.05;;;4.47;;
3307;SDS011;1666;48.898;9.182;2023-02-28T01:43:30;7.15;;;4.40;;
3307;SDS011;1666;48.898;9.182;2023-02-28T01:46:03;6.65;;;4.10;;
3307;SDS011;1666;48.898;9.182;2023-02-28T01:48:34;6.07;;;4.72;;
3307;SDS011;1666;48.898;9.182;2023-02-28T01:51:10;7.10;;;4.45;;
3307;SDS011;1666;48.898;9.182;2023-02-28T01:53:44;6.82;;;4.30;;
3307;SDS011;1666;48.898;9.182;2023-02-28T01:56:17;6.47;;;4.30;;
3307;SDS011;1666;48.898;9.182;2023-02-28T01:58:53;6.53;;;4.88;;
3307;SDS011;1666;48.898;9.182;2023-02-28T02:01:26;8.07;;;5.20;;
3307;SDS011;1666;48.898;9.182;2023-02-28T02:03:59;6.47;;;4.50;;
3307;SDS011;1666;48.898;9.182;2023-02-28T02:06:32;6.40;;;4.80;;
3307;SDS011;1666;48.898;9.182;2023-02-28T02:09:04;7.07;;;4.65;;
3307;SDS011;1666;48.898;9.182;2023-02-28T02:11:35;5.82;;;4.47;;
3307;SDS011;1666;48.898;9.182;2023-02-28T02:17:08;6.57;;;4.80;;
3307;SDS011;1666;48.898;9.182;2023-02-28T02:23:03;7.70;;;4.90;;
3307;SDS011;1666;48.898;9.182;2023-02-28T02:25:50;6.30;;;4.97;;
3307;SDS011;1666;48.898;9.182;2023-02-28T02:31:27;7.85;;;4.93;;
3307;SDS011;1666;48.898;9.182;2023-02-28T02:34:13;6.95;;;4.72;;
3307;SDS011;1666;48.898;9.182;2023-02-28T02:36:58;5.65;;;4.65;;
3307;SDS011;1666;48.898;9.182;2023-02-28T02:39:39;7.47;;;4.63;;
3307;SDS011;1666;48.898;9.182;2023-02-28T02:42:17;5.72;;;4.50;;
3307;SDS011;1666;48.898;9.182;2023-02-28T02:44:55;8.13;;;5.05;;
3307;SDS011;1666;48.898;9.182;2023-02-28T02:47:29;6.03;;;4.53;;
3307;SDS011;1666;48.898;9.182;2023-02-28T02:50:04;8.05;;;4.53;;
3307;SDS011;1666;48.898;9.182;2023-02-28T02:52:38;6.57;;;4.78;;
3307;SDS011;1666;48.898;9.182;2023-02-28T02:55:12;7.82;;;5.00;;
3307;SDS011;1666;48.898;9.182;2023-02-28T02:57:44;8.45;;;4.88;;
3307;SDS011;1666;48.898;9.182;2023-02-28T03:00:17;6.97;;;5.05;;
3307;SDS011;1666;48.898;9.182;2023-02-28T03:02:52;7.72;;;4.70;;
3307;SDS011;1666;48.898;9.182;2023-02-28T03:05:27;7.50;;;5.05;;
3307;SDS011;1666;48.898;9.182;2023-02-28T03:08:02;7.60;;;5.22;;
3307;SDS011;1666;48.898;9.182;2023-02-28T03:10:34;8.32;;;4.97;;
3307;SDS011;1666;48.898;9.182;2023-02-28T03:13:24;5.43;;;4.40;;
3307;SDS011;1666;48.898;9.182;2023-02-28T03:16:28;7.03;;;4.75;;
3307;SDS011;1666;48.898;9.182;2023-02-28T03:19:09;7.47;;;5.47;;
3307;SDS011;1666;48.898;9.182;2023-02-28T03:22:06;7.38;;;4.32;;
3307;SDS011;1666;48.898;9.182;2023-02-28T03:24:49;6.65;;;4.90;;
3307;SDS011;1666;48.898;9.182;2023-02-28T03:27:27;7.18;;;4.78;;
3307;SDS011;1666;48.898;9.182;2023-02-28T03:30:00;7.20;;;4.47;;
3307;SDS011;1666;48.898;9.182;2023-02-28T03:32:33;8.88;;;5.10;;
3307;SDS011;1666;48.898;9.182;2023-02-28T03:35:07;5.93;;;4.50;;
3307;SDS011;1666;48.898;9.182;2023-02-28T03:37:52;9.57;;;4.63;;
3307;SDS011;1666;48.898;9.182;2023-02-28T03:40:27;8.82;;;5.45;;
3307;SDS011;1666;48.898;9.182;2023-02-28T03:45:33;8.40;;;5.32;;
3307;SDS011;1666;48.898;9.182;2023-02-28T03:50:41;8.97;;;5.90;;
3307;SDS011;1666;48.898;9.182;2023-02-28T03:53:16;7.55;;;5.78;;
3307;SDS011;1666;48.898;9.182;2023-02-28T03:55:51;7.75;;;5.85;;
3307;SDS011;1666;48.898;9.182;2023-02-28T03:58:26;7.43;;;5.35;;
3307;SDS011;1666;48.898;9.182;2023-02-28T04:01:00;8.88;;;5.68;;
3307;SDS011;1666;48.898;9.182;2023-02-28T04:03:35;7.13;;;5.15;;
3307;SDS011;1666;48.898;9.182;2023-02-28T04:06:06;8.73;;;5.60;;
3307;SDS011;1666;48.898;9.182;2023-02-28T04:08:44;8.30;;;5.65;;
3307;SDS011;1666;48.898;9.182;2023-02-28T04:11:18;7.70;;;4.93;;
3307;SDS011;1666;48.898;9.182;2023-02-28T04:13:51;7.82;;;5.45;;
3307;SDS011;1666;48.898;9.182;2023-02-28T04:16:20;11.25;;;5.18;;
3307;SDS011;1666;48.898;9.182;2023-02-28T04:19:01;9.75;;;5.65;;
3307;SDS011;1666;48.898;9.182;2023-02-28T04:21:32;8.55;;;5.22;;
3307;SDS011;1666;48.898;9.182;2023-02-28T04:24:06;7.55;;;5.60;;
3307;SDS011;1666;48.898;9.182;2023-02-28T04:26:41;8.27;;;6.03;;
3307;SDS011;1666;48.898;9.182;2023-02-28T04:29:13;10.40;;;6.22;;
3307;SDS011;1666;48.898;9.182;2023-02-28T04:34:17;9.30;;;6.07;;
3307;SDS011;1666;48.898;9.182;2023-02-28T04:36:47;8.07;;;5.60;;
3307;SDS011;1666;48.898;9.182;2023-02-28T04:39:40;7.60;;;5.60;;
3307;SDS011;1666;48.898;9.182;2023-02-28T04:42:11;9.52;;;6.25;;
3307;SDS011;1666;48.898;9.182;2023-02-28T04:44:41;10.60;;;5.45;;
3307;SDS011;1666;48.898;9.182;2023-02-28T04:47:11;10.10;;;5.35;;
3307;SDS011;1666;48.898;9.182;2023-02-28T04:49:41;9.57;;;5.22;;
3307;SDS011;1666;48.898;9.182;2023-02-28T04:52:11;9.02;;;6.15;;
3307;SDS011;1666;48.898;9.182;2023-02-28T04:54:43;10.00;;;6.63;;
3307;SDS011;1666;48.898;9.182;2023-02-28T04:57:13;8.43;;;5.38;;
3307;SDS011;1666;48.898;9.182;2023-02-28T04:59:42;9.68;;;6.20;;
3307;SDS011;1666;48.898;9.182;2023-02-28T05:02:12;11.90;;;6.38;;
3307;SDS011;1666;48.898;9.182;2023-02-28T05:04:42;8.52;;;5.72;;
3307;SDS011;1666;48.898;9.182;2023-02-28T05:07:12;11.57;;;6.20;;
3307;SDS011;1666;48.898;9.182;2023-02-28T05:09:44;9.93;;;6.10;;
3307;SDS011;1666;48.898;9.182;2023-02-28T05:12:14;10.65;;;6.32;;
3307;SDS011;1666;48.898;9.182;2023-02-28T05:14:44;10.57;;;6.60;;
3307;SDS011;1666;48.898;9.182;2023-02-28T05:17:14;12.35;;;6.68;;
3307;SDS011;1666;48.898;9.182;2023-02-28T05:19:43;10.48;;;6.60;;
3307;SDS011;1666;48.898;9.182;2023-02-28T05:22:14;8.27;;;5.60;;
3307;SDS011;1666;48.898;9.182;2023-02-28T05:24:47;9.93;;;6.72;;
3307;SDS011;1666;48.898;9.182;2023-02-28T05:27:17;9.15;;;5.47;;
3307;SDS011;1666;48.898;9.182;2023-02-28T05:29:47;9.45;;;5.60;;
3307;SDS011;1666;48.898;9.182;2023-02-28T05:32:17;9.57;;;6.47;;
3307;SDS011;1666;48.898;9.182;2023-02-28T05:34:47;12.00;;;6.30;;
3307;SDS011;1666;48.898;9.182;2023-02-28T05:37:17;12.43;;;6.05;;
3307;SDS011;1666;48.898;9.182;2023-02-28T05:39:50;11.77;;;6.25;;
3307;SDS011;1666;48.898;9.182;2023-02-28T05:42:20;11.35;;;6.32;;
3307;SDS011;1666;48.898;9.182;2023-02-28T05:44:50;8.30;;;5.57;;
3307;SDS011;1666;48.898;9.182;2023-02-28T05:47:20;10.43;;;6.40;;
3307;SDS011;1666;48.898;9.182;2023-02-28T05:49:50;10.30;;;6.55;;
3307;SDS011;1666;48.898;9.182;2023-02-28T05:52:20;11.10;;;6.63;;
3307;SDS011;1666;48.898;9.182;2023-02-28T05:54:52;9.57;;;6.35;;
3307;SDS011;1666;48.898;9.182;2023-02-28T05:57:22;11.25;;;6.63;;
3307;SDS011;1666;48.898;9.182;2023-02-28T05:59:52;10.02;;;5.68;;
3307;SDS011;1666;48.898;9.182;2023-02-28T06:02:22;13.27;;;6.65;;
3307;SDS011;1666;48.898;9.182;2023-02-28T06:04:52;11.55;;;6.82;;
3307;SDS011;1666;48.898;9.182;2023-02-28T06:07:21;10.30;;;6.13;;
3307;SDS011;1666;48.898;9.182;2023-02-28T06:09:54;11.65;;;6.22;;
3307;SDS011;1666;48.898;9.182;2023-02-28T06:12:24;11.50;;;6.78;;
3307;SDS011;1666;48.898;9.182;2023-02-28T06:14:54;12.27;;;6.40;;
3307;SDS011;1666;48.898;9.182;2023-02-28T06:17:23;9.18;;;5.63;;
3307;SDS011;1666;48.898;9.182;2023-02-28T06:19:53;10.38;;;6.47;;
3307;SDS011;1666;48.898;9.182;2023-02-28T06:22:23;10.88;;;6.57;;
3307;SDS011;1666;48.898;9.182;2023-02-28T06:24:56;10.70;;;6.25;;
3307;SDS011;1666;48.898;9.182;2023-02-28T06:27:26;10.45;;;6.70;;
3307;SDS011;1666;48.898;9.182;2023-02-28T06:29:56;10.20;;;5.88;;
3307;SDS011;1666;48.898;9.182;2023-02-28T06:32:26;11.93;;;6.07;;
3307;SDS011;1666;48.898;9.182;2023-02-28T06:34:56;12.63;;;6.28;;
3307;SDS011;1666;48.898;9.182;2023-02-28T06:37:26;12.57;;;7.57;;
3307;SDS011;1666;48.898;9.182;2023-02-28T06:39:58;14.57;;;8.45;;
3307;SDS011;1666;48.898;9.182;2023-02-28T06:42:28;12.35;;;7.13;;
3307;SDS011;1666;48.898;9.182;2023-02-28T06:44:58;16.02;;;6.80;;
3307;SDS011;1666;48.898;9.182;2023-02-28T06:47:35;12.13;;;6.68;;
3307;SDS011;1666;48.898;9.182;2023-02-28T06:50:06;11.10;;;6.10;;
3307;SDS011;1666;48.898;9.182;2023-02-28T06:52:37;13.07;;;6.63;;
3307;SDS011;1666;48.898;9.182;2023-02-28T06:55:10;11.55;;;6.88;;
3307;SDS011;1666;48.898;9.182;2023-02-28T06:57:41;9.47;;;7.10;;
3307;SDS011;1666;48.898;9.182;2023-02-28T07:00:11;10.07;;;6.50;;
3307;SDS011;1666;48.898;9.182;2023-02-28T07:02:42;11.63;;;7.22;;
3307;SDS011;1666;48.898;9.182;2023-02-28T07:05:12;15.30;;;6.32;;
3307;SDS011;1666;48.898;9.182;2023-02-28T07:07:41;9.98;;;6.60;;
3307;SDS011;1666;48.898;9.182;2023-02-28T07:10:15;13.63;;;7.03;;
3307;SDS011;1666;48.898;9.182;2023-02-28T07:12:46;13.27;;;7.45;;
3307;SDS011;1666;48.898;9.182;2023-02-28T07:15:16;12.48;;;7.53;;
3307;SDS011;1666;48.898;9.182;2023-02-28T07:17:46;15.73;;;9.13;;
3307;SDS011;1666;48.898;9.182;2023-02-28T07:20:16;13.05;;;6.70;;
3307;SDS011;1666;48.898;9.182;2023-02-28T07:22:46;13.85;;;7.00;;
3307;SDS011;1666;48.898;9.182;2023-02-28T07:25:25;12.45;;;7.30;;
3307;SDS011;1666;48.898;9.182;2023-02-28T07:27:56;10.25;;;7.03;;
3307;SDS011;1666;48.898;9.182;2023-02-28T07:30:26;11.68;;;6.80;;
3307;SDS011;1666;48.898;9.182;2023-02-28T07:32:56;9.98;;;6.70;;
3307;SDS011;1666;48.898;9.182;2023-02-28T07:35:26;11.40;;;7.82;;
3307;SDS011;1666;48.898;9.182;2023-02-28T07:37:56;14.07;;;7.55;;
3307;SDS011;1666;48.898;9.182;2023-02-28T07:40:29;14.32;;;7.20;;
3307;SDS011;1666;48.898;9.182;2023-02-28T07:43:00;12.75;;;6.97;;
3307;SDS011;1666;48.898;9.182;2023-02-28T07:45:30;13.02;;;7.47;;
3307;SDS011;1666;48.898;9.182;2023-02-28T07:48:01;12.50;;;7.07;;
3307;SDS011;1666;48.898;9.182;2023-02-28T07:50:31;12.80;;;7.65;;
3307;SDS011;1666;48.898;9.182;2023-02-28T07:53:01;13.27;;;7.15;;
3307;SDS011;1666;48.898;9.182;2023-02-28T07:55:33;17.80;;;10.18;;
3307;SDS011;1666;48.898;9.182;2023-02-28T07:58:03;10.98;;;7.20;;
3307;SDS011;1666;48.898;9.182;2023-02-28T08:00:33;12.90;;;7.28;;
3307;SDS011;1666;48.898;9.182;2023-02-28T08:03:03;17.90;;;7.28;;
3307;SDS011;1666;48.898;9.182;2023-02-28T08:05:33;11.40;;;7.13;;
3307;SDS011;1666;48.898;9.182;2023-02-28T08:08:07;13.00;;;7.68;;
3307;SDS011;1666;48.898;9.182;2023-02-28T08:10:39;17.13;;;8.00;;
3307;SDS011;1666;48.898;9.182;2023-02-28T08:13:09;11.52;;;6.97;;
3307;SDS011;1666;48.898;9.182;2023-02-28T08:15:40;13.32;;;7.45;;
3307;SDS011;1666;48.898;9.182;2023-02-28T08:18:11;12.55;;;7.28;;
3307;SDS011;1666;48.898;9.182;2023-02-28T08:20:41;16.85;;;7.55;;
3307;SDS011;1666;48.898;9.182;2023-02-28T08:23:11;17.98;;;7.72;;
3307;SDS011;1666;48.898;9.182;2023-02-28T08:25:43;17.35;;;8.35;;
3307;SDS011;1666;48.898;9.182;2023-02-28T08:28:13;19.65;;;8.63;;
3307;SDS011;1666;48.898;9.182;2023-02-28T08:30:43;12.75;;;8.32;;
3307;SDS011;1666;48.898;9.182;2023-02-28T08:33:13;13.50;;;8.00;;
3307;SDS011;1666;48.898;9.182;2023-02-28T08:35:42;13.32;;;8.63;;
3307;SDS011;1666;48.898;9.182;2023-02-28T08:38:12;13.63;;;8.00;;
3307;SDS011;1666;48.898;9.182;2023-02-28T08:40:45;15.57;;;8.32;;
3307;SDS011;1666;48.898;9.182;2023-02-28T08:43:14;14.82;;;8.13;;
3307;SDS011;1666;48.898;9.182;2023-02-28T08:45:44;11.48;;;7.32;;
3307;SDS011;1666;48.898;9.182;2023-02-28T08:48:14;11.05;;;7.57;;
3307;SDS011;1666;48.898;9.182;2023-02-28T08:50:45;15.32;;;8.27;;
3307;SDS011;1666;48.898;9.182;2023-02-28T08:53:33;13.52;;;8.20;;
3307;SDS011;1666;48.898;9.182;2023-02-28T08:56:06;14.75;;;7.63;;
3307;SDS011;1666;48.898;9.182;2023-02-28T08:58:37;17.10;;;9.10;;
3307;SDS011;1666;48.898;9.182;2023-02-28T09:01:08;15.90;;;9.32;;
3307;SDS011;1666;48.898;9.182;2023-02-28T09:03:39;13.55;;;8.52;;
3307;SDS011;1666;48.898;9.182;2023-02-28T09:06:10;15.55;;;8.73;;
3307;SDS011;1666;48.898;9.182;2023-02-28T09:08:40;13.25;;;8.13;;
3307;SDS011;1666;48.898;9.182;2023-02-28T09:11:13;13.63;;;7.90;;
3307;SDS011;1666;48.898;9.182;2023-02-28T09:13:43;13.63;;;7.72;;
3307;SDS011;1666;48.898;9.182;2023-02-28T09:16:14;12.70;;;7.88;;
3307;SDS011;1666;48.898;9.182;2023-02-28T09:18:45;11.93;;;8.32;;
3307;SDS011;1666;48.898;9.182;2023-02-28T09:21:16;15.68;;;8.55;;
3307;SDS011;1666;48.898;9.182;2023-02-28T09:23:48;14.63;;;8.23;;
3307;SDS011;1666;48.898;9.182;2023-02-28T09:26:22;13.70;;;8.85;;
3307;SDS011;1666;48.898;9.182;2023-02-28T09:29:04;14.63;;;9.43;;
3307;SDS011;1666;48.898;9.182;2023-02-28T09:31:34;14.82;;;8.20;;
3307;SDS011;1666;48.898;9.182;2023-02-28T09:34:04;18.42;;;8.88;;
3307;SDS011;1666;48.898;9.182;2023-02-28T09:36:34;14.13;;;8.98;;
3307;SDS011;1666;48.898;9.182;2023-02-28T09:39:11;13.52;;;7.72;;
3307;SDS011;1666;48.898;9.182;2023-02-28T09:41:44;14.23;;;7.63;;
3307;SDS011;1666;48.898;9.182;2023-02-28T09:44:19;15.93;;;8.43;;
3307;SDS011;1666;48.898;9.182;2023-02-28T09:46:56;16.25;;;8.70;;
3307;SDS011;1666;48.898;9.182;2023-02-28T09:49:31;14.20;;;8.75;;
3307;SDS011;1666;48.898;9.182;2023-02-28T09:52:07;14.98;;;8.73;;
3307;SDS011;1666;48.898;9.182;2023-02-28T09:54:39;14.32;;;8.27;;
3307;SDS011;1666;48.898;9.182;2023-02-28T09:57:14;14.10;;;8.88;;
3307;SDS011;1666;48.898;9.182;2023-02-28T09:59:51;17.92;;;8.95;;
3307;SDS011;1666;48.898;9.182;2023-02-28T10:02:43;13.68;;;8.00;;
3307;SDS011;1666;48.898;9.182;2023-02-28T10:05:30;19.00;;;8.70;;
3307;SDS011;1666;48.898;9.182;2023-02-28T10:08:11;16.45;;;8.90;;
3307;SDS011;1666;48.898;9.182;2023-02-28T10:10:43;15.70;;;9.10;;
3307;SDS011;1666;48.898;9.182;2023-02-28T10:13:19;13.93;;;7.85;;
3307;SDS011;1666;48.898;9.182;2023-02-28T10:15:55;15.25;;;9.38;;
3307;SDS011;1666;48.898;9.182;2023-02-28T10:18:30;15.70;;;9.13;;
3307;SDS011;1666;48.898;9.182;2023-02-28T10:21:10;16.15;;;8.45;;
3307;SDS011;1666;48.898;9.182;2023-02-28T10:23:48;16.23;;;9.18;;
3307;SDS011;1666;48.898;9.182;2023-02-28T10:26:22;14.93;;;8.93;;
3307;SDS011;1666;48.898;9.182;2023-02-28T10:28:58;15.40;;;8.77;;
3307;SDS011;1666;48.898;9.182;2023-02-28T10:31:29;13.07;;;8.18;;
3307;SDS011;1666;48.898;9.182;2023-02-28T10:33:59;14.65;;;8.68;;
3307;SDS011;1666;48.898;9.182;2023-02-28T10:36:30;12.23;;;7.38;;
3307;SDS011;1666;48.898;9.182;2023-02-28T10:39:01;13.38;;;8.55;;
3307;SDS011;1666;48.898;9.182;2023-02-28T10:42:19;11.98;;;8.80;;
3307;SDS011;1666;48.898;9.182;2023-02-28T10:47:52;14.35;;;9.25;;
3307;SDS011;1666;48.898;9.182;2023-02-28T10:50:28;13.88;;;8.77;;
3307;SDS011;1666;48.898;9.182;2023-02-28T10:53:07;14.63;;;9.05;;
3307;SDS011;1666;48.898;9.182;2023-02-28T10:55:45;13.52;;;8.30;;
3307;SDS011;1666;48.898;9.182;2023-02-28T10:58:25;12.00;;;8.38;;
3307;SDS011;1666;48.898;9.182;2023-02-28T11:00:59;17.83;;;8.98;;
3307;SDS011;1666;48.898;9.182;2023-02-28T11:03:30;13.10;;;8.40;;
3307;SDS011;1666;48.898;9.182;2023-02-28T11:06:06;13.63;;;8.63;;
3307;SDS011;1666;48.898;9.182;2023-02-28T11:08:43;18.08;;;8.70;;
3307;SDS011;1666;48.898;9.182;2023-02-28T11:11:14;13.73;;;8.95;;
3307;SDS011;1666;48.898;9.182;2023-02-28T11:13:46;12.43;;;8.13;;
3307;SDS011;1666;48.898;9.182;2023-02-28T11:16:20;14.15;;;8.68;;
3307;SDS011;1666;48.898;9.182;2023-02-28T11:18:51;14.77;;;9.05;;
3307;SDS011;1666;48.898;9.182;2023-02-28T11:21:23;13.38;;;8.07;;
3307;SDS011;1666;48.898;9.182;2023-02-28T11:23:58;13.23;;;7.90;;
3307;SDS011;1666;48.898;9.182;2023-02-28T11:26:37;12.88;;;8.02;;
3307;SDS011;1666;48.898;9.182;2023-02-28T11:29:16;12.93;;;8.18;;
3307;SDS011;1666;48.898;9.182;2023-02-28T11:34:46;13.23;;;8.20;;
3307;SDS011;1666;48.898;9.182;2023-02-28T11:37:28;16.42;;;8.57;;
3307;SDS011;1666;48.898;9.182;2023-02-28T11:40:01;16.15;;;9.20;;
3307;SDS011;1666;48.898;9.182;2023-02-28T11:42:37;20.30;;;11.45;;
3307;SDS011;1666;48.898;9.182;2023-02-28T11:45:17;13.18;;;9.00;;
3307;SDS011;1666;48.898;9.182;2023-02-28T11:47:57;14.25;;;8.00;;
3307;SDS011;1666;48.898;9.182;2023-02-28T11:50:40;12.30;;;8.30;;
3307;SDS011;1666;48.898;9.182;2023-02-28T11:53:19;11.15;;;7.38;;
3307;SDS011;1666;48.898;9.182;2023-02-28T11:56:00;12.80;;;7.97;;
3307;SDS011;1666;48.898;9.182;2023-02-28T11:58:42;13.98;;;8.32;;
3307;SDS011;1666;48.898;9.182;2023-02-28T12:01:26;12.63;;;8.50;;
3307;SDS011;1666;48.898;9.182;2023-02-28T12:04:16;18.05;;;8.52;;
3307;SDS011;1666;48.898;9.182;2023-02-28T12:06:56;14.75;;;8.77;;
3307;SDS011;1666;48.898;9.182;2023-02-28T12:09:32;13.07;;;7.88;;
3307;SDS011;1666;48.898;9.182;2023-02-28T12:12:12;14.63;;;8.30;;
3307;SDS011;1666;48.898;9.182;2023-02-28T12:20:38;12.98;;;8.98;;
3307;SDS011;1666;48.898;9.182;2023-02-28T12:23:21;16.88;;;10.07;;
3307;SDS011;1666;48.898;9.182;2023-02-28T12:26:10;12.32;;;8.48;;
3307;SDS011;1666;48.898;9.182;2023-02-28T12:28:47;13.25;;;9.02;;
3307;SDS011;1666;48.898;9.182;2023-02-28T12:31:23;12.02;;;8.27;;
3307;SDS011;1666;48.898;9.182;2023-02-28T12:33:56;11.05;;;7.72;;
3307;SDS011;1666;48.898;9.182;2023-02-28T12:36:34;11.63;;;8.05;;
3307;SDS011;1666;48.898;9.182;2023-02-28T12:39:07;14.10;;;8.93;;
3307;SDS011;1666;48.898;9.182;2023-02-28T12:41:41;12.85;;;9.13;;
3307;SDS011;1666;48.898;9.182;2023-02-28T12:46:47;13.48;;;7.95;;
3307;SDS011;1666;48.898;9.182;2023-02-28T12:49:21;12.82;;;7.22;;
3307;SDS011;1666;48.898;9.182;2023-02-28T12:52:00;13.90;;;8.60;;
3307;SDS011;1666;48.898;9.182;2023-02-28T12:54:35;15.90;;;8.55;;
3307;SDS011;1666;48.898;9.182;2023-02-28T12:57:14;12.98;;;8.23;;
3307;SDS011;1666;48.898;9.182;2023-02-28T12:59:48;13.63;;;8.05;;
3307;SDS011;1666;48.898;9.182;2023-02-28T13:05:27;12.65;;;8.18;;
3307;SDS011;1666;48.898;9.182;2023-02-28T13:08:15;14.88;;;8.90;;
3307;SDS011;1666;48.898;9.182;2023-02-28T13:11:23;11.68;;;8.27;;
3307;SDS011;1666;48.898;9.182;2023-02-28T13:13:58;15.50;;;8.05;;
3307;SDS011;1666;48.898;9.182;2023-02-28T13:19:28;12.65;;;8.20;;
3307;SDS011;1666;48.898;9.182;2023-02-28T13:22:01;13.27;;;7.60;;
3307;SDS011;1666;48.898;9.182;2023-02-28T13:24:45;13.80;;;7.78;;
3307;SDS011;1666;48.898;9.182;2023-02-28T13:33:21;13.13;;;8.65;;
3307;SDS011;1666;48.898;9.182;2023-02-28T13:36:01;14.10;;;8.35;;
3307;SDS011;1666;48.898;9.182;2023-02-28T13:38:37;15.25;;;8.38;;
3307;SDS011;1666;48.898;9.182;2023-02-28T13:44:11;14.90;;;8.32;;
3307;SDS011;1666;48.898;9.182;2023-02-28T13:49:43;10.95;;;7.68;;
3307;SDS011;1666;48.898;9.182;2023-02-28T13:52:14;15.15;;;7.88;;
3307;SDS011;1666;48.898;9.182;2023-02-28T13:54:52;12.48;;;8.60;;
3307;SDS011;1666;48.898;9.182;2023-02-28T13:57:45;12.57;;;7.93;;
3307;SDS011;1666;48.898;9.182;2023-02-28T14:00:31;15.10;;;8.13;;
3307;SDS011;1666;48.898;9.182;2023-02-28T14:03:15;12.77;;;8.23;;
3307;SDS011;1666;48.898;9.182;2023-02-28T14:06:08;19.27;;;8.77;;
3307;SDS011;1666;48.898;9.182;2023-02-28T14:08:51;15.05;;;9.32;;
3307;SDS011;1666;48.898;9.182;2023-02-28T14:11:29;12.13;;;8.35;;
3307;SDS011;1666;48.898;9.182;2023-02-28T14:14:00;11.68;;;7.18;;
3307;SDS011;1666;48.898;9.182;2023-02-28T14:16:38;12.77;;;8.45;;
3307;SDS011;1666;48.898;9.182;2023-02-28T14:19:11;12.32;;;8.52;;
3307;SDS011;1666;48.898;9.182;2023-02-28T14:21:47;14.13;;;8.25;;
3307;SDS011;1666;48.898;9.182;2023-02-28T14:27:38;13.13;;;8.75;;
3307;SDS011;1666;48.898;9.182;2023-02-28T14:36:16;12.45;;;8.45;;
3307;SDS011;1666;48.898;9.182;2023-02-28T14:38:51;15.65;;;8.65;;
3307;SDS011;1666;48.898;9.182;2023-02-28T14:41:24;12.75;;;8.93;;
3307;SDS011;1666;48.898;9.182;2023-02-28T14:43:59;12.07;;;8.65;;
3307;SDS011;1666;48.898;9.182;2023-02-28T14:46:32;12.38;;;9.10;;
3307;SDS011;1666;48.898;9.182;2023-02-28T14:49:12;14.40;;;9.30;;
3307;SDS011;1666;48.898;9.182;2023-02-28T14:51:45;14.27;;;8.98;;
3307;SDS011;1666;48.898;9.182;2023-02-28T14:54:16;15.32;;;9.00;;
3307;SDS011;1666;48.898;9.182;2023-02-28T14:56:51;13.88;;;8.82;;
3307;SDS011;1666;48.898;9.182;2023-02-28T14:59:24;12.63;;;9.00;;
3307;SDS011;1666;48.898;9.182;2023-02-28T15:04:58;13.52;;;8.63;;
3307;SDS011;1666;48.898;9.182;2023-02-28T15:07:29;14.80;;;9.13;;
3307;SDS011;1666;48.898;9.182;2023-02-28T15:10:09;13.05;;;8.60;;
3307;SDS011;1666;48.898;9.182;2023-02-28T15:12:41;13.13;;;8.82;;
3307;SDS011;1666;48.898;9.182;2023-02-28T15:15:15;13.77;;;9.05;;
3307;SDS011;1666;48.898;9.182;2023-02-28T15:17:57;13.32;;;8.63;;
3307;SDS011;1666;48.898;9.182;2023-02-28T15:20:32;16.65;;;8.65;;
3307;SDS011;1666;48.898;9.182;2023-02-28T15:23:03;13.15;;;8.95;;
3307;SDS011;1666;48.898;9.182;2023-02-28T15:25:33;14.10;;;8.60;;
3307;SDS011;1666;48.898;9.182;2023-02-28T15:28:03;15.57;;;8.88;;
3307;SDS011;1666;48.898;9.182;2023-02-28T15:30:33;18.60;;;9.32;;
3307;SDS011;1666;48.898;9.182;2023-02-28T15:33:04;20.50;;;8.88;;
3307;SDS011;1666;48.898;9.182;2023-02-28T15:35:40;12.45;;;8.93;;
3307;SDS011;1666;48.898;9.182;2023-02-28T15:38:15;12.35;;;8.43;;
3307;SDS011;1666;48.898;9.182;2023-02-28T15:40:49;13.20;;;9.30;;
3307;SDS011;1666;48.898;9.182;2023-02-28T15:43:23;14.20;;;8.82;;
3307;SDS011;1666;48.898;9.182;2023-02-28T15:45:56;17.70;;;8.45;;
3307;SDS011;1666;48.898;9.182;2023-02-28T15:48:29;10.98;;;7.88;;
3307;SDS011;1666;48.898;9.182;2023-02-28T15:51:06;11.27;;;8.30;;
3307;SDS011;1666;48.898;9.182;2023-02-28T15:53:39;17.17;;;10.13;;
3307;SDS011;1666;48.898;9.182;2023-02-28T15:56:19;13.45;;;9.07;;
3307;SDS011;1666;48.898;9.182;2023-02-28T15:58:53;13.98;;;8.80;;
3307;SDS011;1666;48.898;9.182;2023-02-28T16:01:24;13.20;;;8.55;;
3307;SDS011;1666;48.898;9.182;2023-02-28T16:03:59;12.45;;;8.55;;
3307;SDS011;1666;48.898;9.182;2023-02-28T16:06:35;13.52;;;9.30;;
3307;SDS011;1666;48.898;9.182;2023-02-28T16:09:09;13.63;;;9.02;;
3307;SDS011;1666;48.898;9.182;2023-02-28T16:11:41;15.43;;;9.27;;
3307;SDS011;1666;48.898;9.182;2023-02-28T16:14:15;15.18;;;9.48;;
3307;SDS011;1666;48.898;9.182;2023-02-28T16:16:50;15.23;;;9.57;;
3307;SDS011;1666;48.898;9.182;2023-02-28T16:19:21;15.80;;;9.48;;
3307;SDS011;1666;48.898;9.182;2023-02-28T16:21:54;14.40;;;9.20;;
3307;SDS011;1666;48.898;9.182;2023-02-28T16:24:24;17.10;;;9.88;;
3307;SDS011;1666;48.898;9.182;2023-02-28T16:26:54;14.18;;;9.70;;
3307;SDS011;1666;48.898;9.182;2023-02-28T16:29:25;15.40;;;9.57;;
3307;SDS011;1666;48.898;9.182;2023-02-28T16:31:58;16.38;;;9.60;;
3307;SDS011;1666;48.898;9.182;2023-02-28T16:34:29;19.40;;;9.50;;
3307;SDS011;1666;48.898;9.182;2023-02-28T16:37:03;14.43;;;9.60;;
3307;SDS011;1666;48.898;9.182;2023-02-28T16:39:34;14.63;;;9.27;;
3307;SDS011;1666;48.898;9.182;2023-02-28T16:42:04;14.60;;;9.82;;
3307;SDS011;1666;48.898;9.182;2023-02-28T16:44:34;17.55;;;11.60;;
3307;SDS011;1666;48.898;9.182;2023-02-28T16:47:05;16.73;;;9.80;;